createdAt,value
2023-02-23T00:03:44.663Z,6
2023-02-23T00:08:50.847Z,5.7
2023-02-23T00:13:56.898Z,6.3
2023-02-23T00:19:03.026Z,6
2023-02-23T00:24:09.140Z,6
2023-02-23T00:29:15.309Z,6.3
2023-02-23T00:34:20.434Z,6
2023-02-23T00:39:26.512Z,5.7
2023-02-23T00:44:32.637Z,5.7
2023-02-23T00:49:38.756Z,6.3
2023-02-23T00:54:44.871Z,5.7
2023-02-23T00:59:51.049Z,6
2023-02-23T01:04:57.115Z,6.3
2023-02-23T01:10:03.239Z,6
2023-02-23T01:15:09.364Z,6
2023-02-23T01:20:15.480Z,6
2023-02-23T01:25:21.635Z,5.7
2023-02-23T01:30:27.756Z,5.7
2023-02-23T01:35:33.861Z,5.4
2023-02-23T01:40:39.001Z,5.4
2023-02-23T01:45:45.120Z,5.7
2023-02-23T01:50:51.244Z,5.4
2023-02-23T01:55:57.434Z,6
2023-02-23T02:01:03.540Z,5.7
2023-02-23T02:06:09.603Z,5.7
2023-02-23T02:11:15.727Z,5.1
2023-02-23T02:16:21.836Z,5.7
2023-02-23T02:21:28.016Z,6
2023-02-23T02:26:34.086Z,5.4
2023-02-23T02:31:40.202Z,5.7
2023-02-23T02:36:46.322Z,5.7
2023-02-23T02:41:52.465Z,5.4
2023-02-23T02:46:57.614Z,5.7
2023-02-23T02:52:03.706Z,5.7
2023-02-23T02:57:09.808Z,5.4
2023-02-23T03:02:15.927Z,5.7
2023-02-23T03:07:22.041Z,5.1
2023-02-23T03:12:28.169Z,5.4
2023-02-23T03:17:34.294Z,5.7
2023-02-23T03:22:40.416Z,5.7
2023-02-23T03:27:46.536Z,5.4
2023-02-23T03:32:52.651Z,6
2023-02-23T03:37:58.780Z,5.4
2023-02-23T03:43:04.901Z,5.4
2023-02-23T03:48:10.992Z,5.4
2023-02-23T03:53:16.185Z,5.4
2023-02-23T03:58:22.260Z,5.1
2023-02-23T04:03:28.368Z,5.1
2023-02-23T04:08:34.526Z,5.1
2023-02-23T04:13:40.606Z,5.4
2023-02-23T04:18:46.816Z,5.1
2023-02-23T04:23:52.878Z,5.4
2023-02-23T04:28:58.994Z,4.4
2023-02-23T04:34:05.088Z,5.1
2023-02-23T04:44:17.353Z,5.4
2023-02-23T04:49:23.531Z,4.7
2023-02-23T04:54:29.579Z,5.4
2023-02-23T04:59:34.755Z,4.7
2023-02-23T05:04:40.848Z,5.4
2023-02-23T05:09:46.940Z,5.1
2023-02-23T05:14:53.090Z,5.1
2023-02-23T05:19:59.201Z,5.1
2023-02-23T05:25:05.355Z,4.7
2023-02-23T05:30:11.441Z,4.7
2023-02-23T05:35:17.564Z,5.1
2023-02-23T05:40:23.688Z,5.1
2023-02-23T05:45:29.791Z,4.7
2023-02-23T05:50:35.891Z,5.1
2023-02-23T05:55:42.156Z,4.7
2023-02-23T06:00:48.139Z,4.7
2023-02-23T06:05:53.306Z,5.4
2023-02-23T06:10:59.416Z,4.7
2023-02-23T06:16:05.522Z,5.4
2023-02-23T06:21:11.716Z,5.1
2023-02-23T06:26:17.746Z,5.4
2023-02-23T06:31:23.866Z,4.7
2023-02-23T06:36:30.021Z,5.1
2023-02-23T06:41:36.171Z,4.7
2023-02-23T06:46:42.287Z,4.7
2023-02-23T06:51:48.357Z,5.1
2023-02-23T06:56:54.469Z,4.7
2023-02-23T07:02:00.591Z,4.7
2023-02-23T07:07:06.718Z,5.4
2023-02-23T07:12:11.913Z,4.7
2023-02-23T07:17:17.949Z,4.7
2023-02-23T07:22:24.065Z,5.1
2023-02-23T07:27:30.204Z,4.4
2023-02-23T07:32:36.313Z,4.7
2023-02-23T07:37:42.497Z,5.1
2023-02-23T07:42:48.554Z,5.1
2023-02-23T07:47:54.676Z,4.7
2023-02-23T07:53:00.849Z,5.1
2023-02-23T07:58:06.926Z,4.7
2023-02-23T08:03:13.025Z,5.1
2023-02-23T08:08:19.145Z,4.4
2023-02-23T08:13:25.336Z,4.7
2023-02-23T08:18:30.379Z,4.7
2023-02-23T08:23:36.493Z,5.1
2023-02-23T08:28:42.637Z,5.1
2023-02-23T08:33:48.839Z,5.1
2023-02-23T08:38:54.856Z,5.1
2023-02-23T08:44:01.059Z,4.4
2023-02-23T08:49:07.050Z,5.4
2023-02-23T08:54:13.179Z,5.1
2023-02-23T08:59:19.322Z,5.1
2023-02-23T09:04:25.399Z,5.1
2023-02-23T09:09:31.633Z,4.7
2023-02-23T09:14:37.622Z,5.4
2023-02-23T09:19:43.732Z,5.1
2023-02-23T09:24:48.857Z,5.7
2023-02-23T09:29:55.001Z,5.4
2023-02-23T09:35:01.082Z,5.7
2023-02-23T09:40:07.183Z,5.4
2023-02-23T09:45:13.300Z,5.7
2023-02-23T09:50:19.413Z,5.1
2023-02-23T09:55:25.523Z,5.4
2023-02-23T10:00:31.647Z,5.7
2023-02-23T10:05:37.797Z,5.4
2023-02-23T10:10:43.867Z,5.4
2023-02-23T10:15:50.037Z,5.7
2023-02-23T10:20:56.125Z,5.4
2023-02-23T10:26:02.352Z,6
2023-02-23T10:31:07.519Z,6
2023-02-23T10:36:13.507Z,5.7
2023-02-23T10:41:19.689Z,6
2023-02-23T10:46:25.747Z,5.7
2023-02-23T10:51:31.857Z,6.3
2023-02-23T10:56:37.968Z,6
2023-02-23T11:01:44.160Z,5.4
2023-02-23T11:06:50.167Z,6.3
2023-02-23T11:11:56.364Z,6.3
2023-02-23T11:17:02.895Z,6.3
2023-02-23T11:22:08.619Z,6.3
2023-02-23T11:27:14.784Z,6.7
2023-02-23T11:32:20.735Z,6
2023-02-23T11:37:25.852Z,6.3
2023-02-23T11:42:31.969Z,6.7
2023-02-23T11:47:38.056Z,6.3
2023-02-23T11:52:44.155Z,6.7
2023-02-23T11:57:50.292Z,6.3
2023-02-23T12:02:56.384Z,6.7
2023-02-23T12:08:02.676Z,6.7
2023-02-23T12:13:08.682Z,7
2023-02-23T12:18:14.714Z,7.3
2023-02-23T12:23:20.918Z,7
2023-02-23T12:28:26.923Z,6.7
2023-02-23T12:33:33.043Z,6.7
2023-02-23T12:38:39.146Z,7
2023-02-23T12:43:44.265Z,7.3
2023-02-23T12:48:50.372Z,7.3
2023-02-23T12:53:56.501Z,7.3
2023-02-23T12:59:02.691Z,7
2023-02-23T13:04:08.712Z,7.3
2023-02-23T13:09:14.830Z,7
2023-02-23T13:14:20.929Z,7.6
2023-02-23T13:19:27.059Z,8
2023-02-23T13:24:33.160Z,7.3
2023-02-23T13:29:39.274Z,7
2023-02-23T13:34:45.397Z,7.6
2023-02-23T13:39:51.514Z,7.3
2023-02-23T13:44:57.747Z,8
2023-02-23T13:50:02.755Z,7.3
2023-02-23T13:55:08.853Z,7.6
2023-02-23T14:00:14.963Z,8
2023-02-23T14:05:21.154Z,7.6
2023-02-23T14:10:27.343Z,7.6
2023-02-23T14:15:33.298Z,7.6
2023-02-23T14:20:39.459Z,7.6
2023-02-23T14:25:45.541Z,8
2023-02-23T14:30:51.675Z,7.6
2023-02-23T14:35:57.761Z,7.6
2023-02-23T14:41:03.955Z,7.6
2023-02-23T14:46:09.991Z,8
2023-02-23T14:51:16.132Z,7.3
2023-02-23T14:56:21.421Z,8
2023-02-23T15:01:27.374Z,7.6
2023-02-23T15:06:33.509Z,7.6
2023-02-23T15:11:39.566Z,7.6
2023-02-23T15:16:45.693Z,8
2023-02-23T15:21:52.019Z,8
2023-02-23T15:26:58.099Z,8
2023-02-23T15:32:04.253Z,7.3
2023-02-23T15:37:10.318Z,7.6
2023-02-23T15:42:16.464Z,7.6
2023-02-23T15:47:22.564Z,8
2023-02-23T15:52:28.609Z,7.3
2023-02-23T15:57:34.741Z,7.6
2023-02-23T16:02:39.892Z,8
2023-02-23T16:08:08.189Z,7.6
2023-02-23T16:12:52.120Z,7.6
2023-02-23T16:17:58.200Z,8
2023-02-23T16:23:04.294Z,7.6
2023-02-23T16:28:10.436Z,8
2023-02-23T16:33:16.613Z,8
2023-02-23T16:38:22.502Z,7.3
2023-02-23T16:43:28.625Z,7
2023-02-23T16:48:34.905Z,7.6
2023-02-23T16:53:41.060Z,7.3
2023-02-23T16:58:47.124Z,8
2023-02-23T17:03:53.374Z,7.3
2023-02-23T17:08:58.384Z,7.3
2023-02-23T17:14:04.522Z,7.6
2023-02-23T17:19:10.539Z,7.6
2023-02-23T17:24:16.695Z,7.6
2023-02-23T17:29:22.844Z,7.3
2023-02-23T17:34:28.935Z,7.3
2023-02-23T17:39:34.010Z,7.3
2023-02-23T17:44:40.010Z,7.6
2023-02-23T17:49:46.246Z,7.3
2023-02-23T17:54:52.198Z,7.3
2023-02-23T17:59:58.529Z,7.3
2023-02-23T18:05:04.683Z,7.6
2023-02-23T18:10:10.687Z,7.6
2023-02-23T18:15:16.822Z,7.3
2023-02-23T18:20:22.975Z,7.3
2023-02-23T18:25:29.039Z,7.6
2023-02-23T18:30:35.174Z,7.3
2023-02-23T18:35:41.341Z,7.6
2023-02-23T18:40:47.198Z,7.3
2023-02-23T18:45:52.588Z,7
2023-02-23T18:50:58.445Z,7
2023-02-23T18:56:04.798Z,6.7
2023-02-23T19:01:10.715Z,7.3
2023-02-23T19:06:16.933Z,7
2023-02-23T19:11:23.081Z,7.6
2023-02-23T19:16:29.161Z,7
2023-02-23T19:21:35.286Z,7
2023-02-23T19:26:41.431Z,7.3
2023-02-23T19:31:47.559Z,7
2023-02-23T19:36:53.608Z,7.3
2023-02-23T19:41:59.737Z,7.3
2023-02-23T19:47:05.656Z,7.6
2023-02-23T19:52:11.059Z,7.3
2023-02-23T19:57:17.093Z,7.3
2023-02-23T20:02:23.288Z,7
2023-02-23T20:07:29.331Z,7.3
2023-02-23T20:12:35.391Z,7
2023-02-23T20:17:41.547Z,6.7
2023-02-23T20:22:47.706Z,7.3
2023-02-23T20:27:53.776Z,7
2023-02-23T20:32:59.890Z,8.6
2023-02-23T20:38:06.030Z,7.3
2023-02-23T20:43:12.167Z,7
2023-02-23T20:48:18.240Z,7.3
2023-02-23T20:53:24.381Z,7.3
2023-02-23T20:58:29.533Z,7
2023-02-23T21:03:35.586Z,7
2023-02-23T21:08:41.760Z,6.7
2023-02-23T21:13:47.898Z,7.3
2023-02-23T21:18:54.042Z,6.7
2023-02-23T21:24:00.127Z,7
2023-02-23T21:29:06.236Z,7.3
2023-02-23T21:34:12.374Z,7.6
2023-02-23T21:39:18.379Z,7
2023-02-23T21:44:24.413Z,7
2023-02-23T21:49:30.559Z,7
2023-02-23T21:54:36.902Z,7.6
2023-02-23T21:59:42.974Z,6.7
2023-02-23T22:04:47.991Z,7
2023-02-23T22:09:54.171Z,7
2023-02-23T22:15:00.292Z,6.7
2023-02-23T22:20:06.492Z,7
2023-02-23T22:25:12.530Z,7.3
2023-02-23T22:30:18.628Z,7
2023-02-23T22:35:24.759Z,7
2023-02-23T22:40:30.852Z,6.7
2023-02-23T22:45:36.981Z,6.7
2023-02-23T22:50:42.925Z,6.7
2023-02-23T22:55:49.242Z,6.7
2023-02-23T23:00:55.320Z,7
2023-02-23T23:06:01.428Z,6.7
2023-02-23T23:11:06.564Z,6.7
2023-02-23T23:16:12.628Z,6.7
2023-02-23T23:21:18.704Z,6.7
2023-02-23T23:26:24.755Z,7.3
2023-02-23T23:31:31.072Z,6.7
2023-02-23T23:36:37.125Z,6.3
2023-02-23T23:41:43.240Z,6.3
2023-02-23T23:46:49.347Z,6.7
2023-02-23T23:51:55.434Z,6.7
2023-02-23T23:57:01.613Z,6
